Time;durP1;ratioP1;P1;durP2;ratioP2;P2;SDS_P1;SDS_P2;PMS_P1;PMS_P2;Temp;Humidity;BMP_temperature;BMP_pressure;BME280_temperature;BME280_humidity;BME280_pressure;Samples;Min_cycle;Max_cycle;Signal;HPM_P1;HPM_P2
2023/12/30 00:02:10;;;;;;;10.52;4.10;;;8.50;99.90;;;;;;5010595;28;20321;-69
2023/12/30 00:04:36;;;;;;;22.77;5.03;;;8.50;99.90;;;;;;5025069;28;20021;-69
2023/12/30 00:07:02;;;;;;;11.48;2.35;;;8.40;99.90;;;;;;5026576;28;20029;-69
2023/12/30 00:09:28;;;;;;;8.45;3.88;;;8.40;99.90;;;;;;5043135;28;20025;-70
2023/12/30 00:11:55;;;;;;;3.90;2.25;;;8.40;99.90;;;;;;5026298;28;20036;-70
2023/12/30 00:14:21;;;;;;;10.57;3.53;;;8.30;99.90;;;;;;5041453;28;20041;-69
2023/12/30 00:16:46;;;;;;;8.85;2.88;;;8.30;99.90;;;;;;5026233;28;20232;-69
2023/12/30 00:19:13;;;;;;;8.15;4.28;;;8.40;99.90;;;;;;5042817;28;20075;-69
2023/12/30 00:21:39;;;;;;;8.18;3.38;;;8.40;99.90;;;;;;5025292;28;20040;-69
2023/12/30 00:24:08;;;;;;;7.15;2.85;;;8.40;99.90;;;;;;5009680;28;20315;-68
2023/12/30 00:26:33;;;;;;;2.22;2.03;;;8.40;99.90;;;;;;4990084;28;20079;-69
2023/12/30 00:29:04;;;;;;;17.48;5.88;;;8.40;99.90;;;;;;5006498;28;20021;-70
2023/12/30 00:31:32;;;;;;;6.88;3.65;;;8.40;99.90;;;;;;5025911;28;20382;-70
2023/12/30 00:34:00;;;;;;;10.25;5.90;;;8.40;99.90;;;;;;5025964;28;20036;-70
2023/12/30 00:36:27;;;;;;;9.93;5.30;;;8.40;99.90;;;;;;5025286;28;20025;-69
2023/12/30 00:38:54;;;;;;;3.55;2.47;;;8.40;99.90;;;;;;5025066;28;20052;-69
2023/12/30 00:41:24;;;;;;;24.05;4.85;;;8.30;99.90;;;;;;5022712;28;20303;-69
2023/12/30 00:43:51;;;;;;;7.53;3.70;;;8.40;99.90;;;;;;5006472;28;20034;-69
2023/12/30 00:46:19;;;;;;;14.90;3.75;;;8.30;99.90;;;;;;5038213;28;20144;-69
2023/12/30 00:48:46;;;;;;;8.68;3.88;;;8.20;99.90;;;;;;5025672;28;20318;-69
2023/12/30 00:51:12;;;;;;;11.18;5.07;;;8.40;99.90;;;;;;5042413;28;20079;-69
2023/12/30 00:53:37;;;;;;;4.43;3.03;;;8.30;99.90;;;;;;5004760;28;21961;-70
2023/12/30 00:56:04;;;;;;;8.13;4.38;;;8.40;99.90;;;;;;5020337;28;20059;-69
2023/12/30 00:58:30;;;;;;;12.57;4.75;;;8.30;99.90;;;;;;5042074;28;20245;-70
2023/12/30 01:00:56;;;;;;;11.80;4.72;;;8.30;99.90;;;;;;5025580;28;20021;-70
2023/12/30 01:03:22;;;;;;;10.10;2.78;;;8.40;99.90;;;;;;5042229;28;20071;-69
2023/12/30 01:05:47;;;;;;;4.40;2.03;;;8.40;99.90;;;;;;5023821;28;20187;-70
2023/12/30 01:08:14;;;;;;;6.13;3.60;;;8.40;99.90;;;;;;5025240;28;20096;-70
2023/12/30 01:10:40;;;;;;;8.77;3.95;;;8.40;99.90;;;;;;5042208;28;20063;-69
2023/12/30 01:13:06;;;;;;;7.28;2.92;;;8.50;99.90;;;;;;5041893;28;20018;-69
2023/12/30 01:15:34;;;;;;;8.00;2.05;;;8.50;99.90;;;;;;5023977;28;20112;-69
2023/12/30 01:18:02;;;;;;;6.93;3.10;;;8.60;99.90;;;;;;5024950;28;20037;-69
2023/12/30 01:20:28;;;;;;;5.18;3.30;;;8.70;99.90;;;;;;5041657;28;20302;-70
2023/12/30 01:22:54;;;;;;;9.00;2.15;;;8.70;99.90;;;;;;5041132;28;20023;-69
2023/12/30 01:25:19;;;;;;;4.32;2.67;;;8.70;99.90;;;;;;5023923;28;20033;-69
2023/12/30 01:27:45;;;;;;;8.65;3.03;;;8.70;99.90;;;;;;5042081;28;20096;-69
2023/12/30 01:30:11;;;;;;;9.13;3.95;;;8.70;99.90;;;;;;5041868;28;20033;-69
2023/12/30 01:32:38;;;;;;;10.18;2.10;;;8.70;99.90;;;;;;5024895;28;20032;-69
2023/12/30 01:35:04;;;;;;;15.05;3.28;;;8.60;99.90;;;;;;5023873;28;20315;-69
2023/12/30 01:37:30;;;;;;;11.05;2.70;;;8.50;99.90;;;;;;5024765;28;20037;-70
2023/12/30 01:39:56;;;;;;;6.28;3.20;;;8.50;99.90;;;;;;5024753;28;20032;-69
2023/12/30 01:42:22;;;;;;;5.85;2.40;;;8.50;99.90;;;;;;5025062;28;20029;-70
2023/12/30 01:44:48;;;;;;;4.57;2.60;;;8.50;99.90;;;;;;5040233;28;20048;-69
2023/12/30 01:47:14;;;;;;;8.07;3.92;;;8.50;99.90;;;;;;5025302;28;20049;-70
2023/12/30 01:49:42;;;;;;;6.55;2.65;;;8.50;99.90;;;;;;5008571;28;20026;-69
2023/12/30 01:52:08;;;;;;;6.47;3.30;;;8.50;99.90;;;;;;4995915;28;20040;-70
2023/12/30 01:54:34;;;;;;;10.48;4.25;;;8.50;99.90;;;;;;5006605;28;20108;-70
2023/12/30 01:57:02;;;;;;;4.38;3.22;;;8.50;99.90;;;;;;5025043;28;20156;-71
2023/12/30 01:59:30;;;;;;;2.55;1.67;;;8.50;99.90;;;;;;5041092;28;20052;-71
2023/12/30 02:01:56;;;;;;;7.70;3.22;;;8.50;99.90;;;;;;5008344;28;20052;-69
2023/12/30 02:04:24;;;;;;;6.07;3.95;;;8.40;99.90;;;;;;5001714;28;20319;-70
2023/12/30 02:06:51;;;;;;;8.82;2.38;;;8.40;99.90;;;;;;5024869;28;20032;-69
2023/12/30 02:09:17;;;;;;;11.00;4.53;;;8.40;99.90;;;;;;5041459;28;20310;-69
2023/12/30 02:11:43;;;;;;;11.55;2.75;;;8.40;99.90;;;;;;5041357;28;20058;-70
2023/12/30 02:14:23;;;;;;;10.57;3.25;;;8.50;99.90;;;;;;5041185;28;20040;-70
2023/12/30 02:16:49;;;;;;;5.53;3.38;;;8.50;99.90;;;;;;5004962;28;20050;-70
2023/12/30 02:19:15;;;;;;;10.40;3.42;;;8.50;99.90;;;;;;5005013;28;20029;-70
2023/12/30 02:21:41;;;;;;;9.65;3.10;;;8.60;99.90;;;;;;5004972;28;20025;-69
2023/12/30 02:24:07;;;;;;;7.10;2.22;;;8.50;99.90;;;;;;5005188;28;20357;-69
2023/12/30 02:26:32;;;;;;;6.20;3.42;;;8.60;99.90;;;;;;5007292;28;20029;-70
2023/12/30 02:28:59;;;;;;;7.13;2.10;;;8.60;99.90;;;;;;5024897;28;20052;-71
2023/12/30 02:31:24;;;;;;;10.27;2.53;;;8.60;99.90;;;;;;5040467;28;20049;-70
2023/12/30 02:33:50;;;;;;;4.15;2.38;;;8.60;99.90;;;;;;5040957;28;20052;-71
2023/12/30 02:36:16;;;;;;;5.05;2.30;;;8.60;99.90;;;;;;5022937;28;20020;-69
2023/12/30 02:38:42;;;;;;;4.45;2.65;;;8.60;99.90;;;;;;4992114;28;20073;-70
2023/12/30 02:41:08;;;;;;;4.93;2.88;;;8.50;99.90;;;;;;5007951;28;20052;-70
2023/12/30 02:43:59;;;;;;;7.03;2.97;;;8.50;99.90;;;;;;5024727;28;20033;-70
2023/12/30 02:46:25;;;;;;;4.82;2.30;;;8.60;99.90;;;;;;5026798;28;20018;-70
2023/12/30 02:48:51;;;;;;;11.00;2.92;;;8.40;99.90;;;;;;5044144;28;20064;-70
2023/12/30 02:51:17;;;;;;;6.15;3.63;;;8.30;99.90;;;;;;5028179;28;20021;-70
2023/12/30 02:53:43;;;;;;;7.60;2.88;;;8.30;99.90;;;;;;5028136;28;20033;-70
2023/12/30 02:56:39;;;;;;;6.15;2.20;;;8.30;99.90;;;;;;5026592;28;20380;-70
2023/12/30 02:59:05;;;;;;;15.18;2.70;;;8.20;99.90;;;;;;5015252;28;20064;-70
2023/12/30 03:01:31;;;;;;;7.97;2.42;;;8.10;99.90;;;;;;5044115;28;20018;-70
2023/12/30 03:03:59;;;;;;;3.75;2.35;;;8.10;99.90;;;;;;5027922;28;20017;-69
2023/12/30 03:06:25;;;;;;;6.63;3.72;;;8.10;99.90;;;;;;5044090;28;20071;-72
2023/12/30 03:08:53;;;;;;;11.63;2.42;;;8.00;99.90;;;;;;5027758;28;20029;-69
2023/12/30 03:11:19;;;;;;;7.57;1.95;;;7.90;99.90;;;;;;5044944;28;20030;-69
2023/12/30 03:13:45;;;;;;;5.22;2.15;;;7.90;99.90;;;;;;5027502;28;20033;-70
2023/12/30 03:16:13;;;;;;;7.93;2.35;;;7.90;99.90;;;;;;5042578;28;20029;-71
2023/12/30 03:18:39;;;;;;;4.45;2.25;;;7.90;99.90;;;;;;5027633;28;20263;-70
2023/12/30 03:21:09;;;;;;;11.00;3.30;;;7.90;99.90;;;;;;5027680;28;20100;-69
2023/12/30 03:23:38;;;;;;;6.45;2.47;;;7.90;99.90;;;;;;5027616;28;20176;-70
2023/12/30 03:26:05;;;;;;;10.35;3.75;;;7.90;99.90;;;;;;5014961;28;20033;-69
2023/12/30 03:28:32;;;;;;;6.72;2.63;;;7.90;99.90;;;;;;5007342;28;20268;-69
2023/12/30 03:30:57;;;;;;;4.45;3.10;;;7.90;99.90;;;;;;5034346;28;20033;-71
2023/12/30 03:33:24;;;;;;;11.02;2.90;;;7.90;99.90;;;;;;5025828;28;20025;-70
2023/12/30 03:35:52;;;;;;;3.88;2.35;;;7.80;99.90;;;;;;5026109;28;20033;-70
2023/12/30 03:38:19;;;;;;;24.88;4.25;;;7.90;99.90;;;;;;5043775;28;20234;-70
2023/12/30 03:40:45;;;;;;;9.82;3.45;;;7.80;99.90;;;;;;5043320;28;20021;-69
2023/12/30 03:43:12;;;;;;;15.93;2.47;;;7.80;99.90;;;;;;5042992;28;20025;-70
2023/12/30 03:45:37;;;;;;;7.40;3.28;;;7.80;99.90;;;;;;5041852;28;20099;-71
2023/12/30 03:48:04;;;;;;;5.65;2.78;;;7.80;99.90;;;;;;5043014;28;20022;-70
2023/12/30 03:50:31;;;;;;;10.38;3.28;;;7.80;99.90;;;;;;5043171;28;20040;-69
2023/12/30 03:52:57;;;;;;;15.20;2.63;;;7.80;99.90;;;;;;5026698;28;20345;-70
2023/12/30 03:55:23;;;;;;;5.13;3.30;;;7.80;99.90;;;;;;5008781;28;20105;-70
2023/12/30 03:57:50;;;;;;;13.32;4.00;;;7.80;99.90;;;;;;5006011;28;20321;-70
2023/12/30 04:00:16;;;;;;;6.60;3.13;;;7.80;99.90;;;;;;5007962;28;20022;-71
2023/12/30 04:02:43;;;;;;;17.45;3.70;;;7.90;99.90;;;;;;5026819;28;20033;-71
2023/12/30 04:05:09;;;;;;;18.10;4.25;;;7.90;99.90;;;;;;5010197;28;20029;-69
2023/12/30 04:07:36;;;;;;;9.65;2.85;;;7.80;99.90;;;;;;5026798;28;20026;-69
2023/12/30 04:10:02;;;;;;;8.63;2.80;;;7.80;99.90;;;;;;5042986;28;20048;-70
2023/12/30 04:12:30;;;;;;;14.35;4.80;;;7.90;99.90;;;;;;5042708;28;20025;-70
2023/12/30 04:14:56;;;;;;;17.13;3.70;;;7.90;99.90;;;;;;5041388;28;20087;-70
2023/12/30 04:17:22;;;;;;;4.88;2.75;;;7.90;99.90;;;;;;5009983;28;20113;-70
2023/12/30 04:19:49;;;;;;;9.75;2.40;;;7.80;99.90;;;;;;5010187;28;20314;-70
2023/12/30 04:22:15;;;;;;;15.32;4.47;;;7.80;99.90;;;;;;5044017;28;20021;-70
2023/12/30 04:24:41;;;;;;;11.80;3.25;;;7.80;99.90;;;;;;5008571;28;20026;-70
2023/12/30 04:27:06;;;;;;;9.50;4.80;;;7.70;99.90;;;;;;5042262;28;20028;-70
2023/12/30 04:29:33;;;;;;;11.48;4.10;;;7.70;99.90;;;;;;5026138;28;20107;-69
2023/12/30 04:31:59;;;;;;;11.35;4.72;;;7.80;99.90;;;;;;5043364;28;20036;-69
2023/12/30 04:34:25;;;;;;;9.27;4.32;;;7.80;99.90;;;;;;5024815;28;20041;-70
2023/12/30 04:36:51;;;;;;;7.07;3.47;;;7.70;99.90;;;;;;5009704;28;20014;-70
2023/12/30 04:39:16;;;;;;;10.43;3.63;;;7.80;99.90;;;;;;5025993;28;20025;-70
2023/12/30 04:41:42;;;;;;;13.32;4.30;;;7.90;99.90;;;;;;5043609;28;20234;-69
2023/12/30 04:44:08;;;;;;;15.55;4.28;;;7.90;99.90;;;;;;5043459;28;20210;-70
2023/12/30 04:46:34;;;;;;;5.63;2.85;;;7.80;99.90;;;;;;5024343;28;20017;-69
2023/12/30 04:49:02;;;;;;;11.90;5.00;;;7.80;99.90;;;;;;5009441;28;20033;-69
2023/12/30 04:51:29;;;;;;;9.65;4.70;;;7.70;99.90;;;;;;5025847;28;20029;-70
2023/12/30 04:53:56;;;;;;;17.25;4.13;;;7.70;99.90;;;;;;5009845;28;20034;-70
2023/12/30 04:56:23;;;;;;;4.32;2.80;;;7.70;99.90;;;;;;5040800;28;20028;-70
2023/12/30 04:58:51;;;;;;;10.38;4.55;;;7.70;99.90;;;;;;5002752;28;20026;-70
2023/12/30 05:01:17;;;;;;;9.13;5.28;;;7.60;99.90;;;;;;5008377;28;20318;-69
2023/12/30 05:03:42;;;;;;;6.20;3.33;;;7.70;99.90;;;;;;4989838;28;20018;-70
2023/12/30 05:06:18;;;;;;;4.25;2.50;;;7.70;99.90;;;;;;5037792;28;20093;-70
2023/12/30 05:08:44;;;;;;;8.15;2.78;;;7.70;99.90;;;;;;5042622;28;20075;-71
2023/12/30 05:11:10;;;;;;;8.88;2.72;;;7.70;99.90;;;;;;5043217;28;20025;-70
2023/12/30 05:13:36;;;;;;;18.25;4.45;;;7.60;99.90;;;;;;5025290;28;20031;-70
2023/12/30 05:16:02;;;;;;;13.48;3.88;;;7.60;99.90;;;;;;5007920;28;20325;-70
2023/12/30 05:18:28;;;;;;;9.52;3.55;;;7.70;99.90;;;;;;5025321;28;20030;-70
2023/12/30 05:20:53;;;;;;;5.85;2.75;;;7.60;99.90;;;;;;5008894;28;20026;-69
2023/12/30 05:23:19;;;;;;;16.25;2.75;;;7.70;99.90;;;;;;5009103;28;20025;-70
2023/12/30 05:25:45;;;;;;;9.05;4.32;;;7.60;99.90;;;;;;5007601;28;20036;-69
2023/12/30 05:28:11;;;;;;;17.60;3.58;;;7.60;99.90;;;;;;5040672;28;20021;-69
2023/12/30 05:30:37;;;;;;;7.85;3.22;;;7.50;99.90;;;;;;5005476;28;20030;-71
2023/12/30 05:33:04;;;;;;;9.82;4.13;;;7.50;99.90;;;;;;5021617;28;20487;-71
2023/12/30 05:35:30;;;;;;;9.70;4.32;;;7.50;99.90;;;;;;4997902;28;20105;-72
2023/12/30 05:37:56;;;;;;;4.68;2.75;;;7.50;99.90;;;;;;5002179;28;20068;-75
2023/12/30 05:40:22;;;;;;;9.27;5.15;;;7.40;99.90;;;;;;5022968;28;20022;-73
2023/12/30 05:42:48;;;;;;;11.15;4.05;;;7.40;99.90;;;;;;5023931;28;20029;-71
2023/12/30 05:45:14;;;;;;;8.45;2.50;;;7.30;99.90;;;;;;5005310;28;20034;-72
2023/12/30 05:47:39;;;;;;;19.45;4.10;;;7.40;99.90;;;;;;5008264;28;20071;-71
2023/12/30 05:50:07;;;;;;;11.73;4.25;;;7.40;99.90;;;;;;5021552;28;20034;-70
2023/12/30 05:52:34;;;;;;;3.40;2.85;;;7.40;99.90;;;;;;5019066;28;20017;-72
2023/12/30 05:55:00;;;;;;;12.35;3.30;;;7.40;99.90;;;;;;5021097;28;20048;-72
2023/12/30 05:57:27;;;;;;;7.65;4.07;;;7.40;99.90;;;;;;4968978;28;20302;-71
2023/12/30 05:59:53;;;;;;;3.47;1.60;;;7.30;99.90;;;;;;4994877;28;20068;-71
2023/12/30 06:02:19;;;;;;;9.40;4.45;;;7.30;99.90;;;;;;5039031;28;20100;-72
2023/12/30 06:04:44;;;;;;;5.88;3.75;;;7.30;99.90;;;;;;5034425;28;20265;-75
2023/12/30 06:07:10;;;;;;;10.68;3.22;;;7.30;99.90;;;;;;5022621;28;20029;-76
2023/12/30 06:09:36;;;;;;;11.90;2.85;;;7.20;99.90;;;;;;5038937;28;20064;-76
2023/12/30 06:12:02;;;;;;;4.28;2.08;;;7.20;99.90;;;;;;5024274;28;20017;-76
2023/12/30 06:14:28;;;;;;;15.15;4.55;;;7.20;99.90;;;;;;5034370;28;20048;-75
2023/12/30 06:16:54;;;;;;;8.80;3.25;;;7.20;99.90;;;;;;5020340;28;20026;-75
2023/12/30 06:19:20;;;;;;;8.98;2.90;;;7.20;99.90;;;;;;5022659;28;20711;-76
2023/12/30 06:21:46;;;;;;;9.82;2.05;;;7.10;99.90;;;;;;5009897;28;20025;-76
2023/12/30 06:24:12;;;;;;;11.00;2.50;;;7.10;99.90;;;;;;5042705;28;20025;-75
2023/12/30 06:26:39;;;;;;;9.32;4.28;;;7.10;99.90;;;;;;5007592;28;20041;-75
2023/12/30 06:29:06;;;;;;;5.20;3.45;;;7.10;99.90;;;;;;5031380;28;20030;-73
2023/12/30 06:31:32;;;;;;;7.78;3.88;;;7.00;99.90;;;;;;5021870;28;20024;-71
2023/12/30 06:33:58;;;;;;;6.35;2.53;;;7.00;99.90;;;;;;5025953;28;20037;-72
2023/12/30 06:36:24;;;;;;;6.85;3.45;;;7.00;99.90;;;;;;5021548;28;20125;-71
2023/12/30 06:38:51;;;;;;;9.70;3.90;;;7.00;99.90;;;;;;5043292;28;20037;-72
2023/12/30 06:41:20;;;;;;;3.10;2.58;;;7.00;99.90;;;;;;5039284;28;20025;-70
2023/12/30 06:43:46;;;;;;;15.60;4.50;;;7.00;99.90;;;;;;5044060;28;20017;-70
2023/12/30 06:46:13;;;;;;;18.05;3.38;;;7.00;99.90;;;;;;5037926;28;20021;-70
2023/12/30 06:48:38;;;;;;;8.95;3.30;;;7.10;99.90;;;;;;5043930;28;20344;-71
2023/12/30 06:51:10;;;;;;;9.13;4.53;;;7.10;99.90;;;;;;5040134;28;20014;-71
2023/12/30 06:53:36;;;;;;;15.88;4.88;;;7.10;99.90;;;;;;5044053;28;20029;-71
2023/12/30 06:56:02;;;;;;;12.55;3.03;;;7.10;99.90;;;;;;5041550;28;20071;-70
2023/12/30 06:58:29;;;;;;;10.55;5.25;;;7.00;99.90;;;;;;5024511;28;20025;-72
2023/12/30 07:00:55;;;;;;;10.25;4.30;;;7.10;99.90;;;;;;5042800;28;20330;-70
2023/12/30 07:03:21;;;;;;;5.22;2.95;;;7.00;99.90;;;;;;5043533;28;20021;-71
2023/12/30 07:05:47;;;;;;;10.07;4.60;;;7.10;99.90;;;;;;5041480;28;20254;-71
2023/12/30 07:08:14;;;;;;;14.82;3.63;;;7.10;99.90;;;;;;5025827;28;20025;-70
2023/12/30 07:10:39;;;;;;;10.07;4.78;;;7.10;99.90;;;;;;5042313;28;20096;-70
2023/12/30 07:13:06;;;;;;;10.68;3.78;;;7.10;99.90;;;;;;5023339;28;20025;-71
2023/12/30 07:15:32;;;;;;;5.75;3.35;;;7.10;99.90;;;;;;5006651;28;20537;-71
2023/12/30 07:17:58;;;;;;;8.52;3.55;;;7.00;99.90;;;;;;5042005;28;20026;-71
2023/12/30 07:20:26;;;;;;;8.90;3.15;;;6.90;99.90;;;;;;5040543;28;20018;-70
2023/12/30 07:22:56;;;;;;;13.70;2.88;;;6.90;99.90;;;;;;5041773;28;20026;-70
2023/12/30 07:25:22;;;;;;;6.75;3.72;;;6.90;99.90;;;;;;5030055;28;20033;-70
2023/12/30 07:27:49;;;;;;;12.40;4.68;;;6.80;99.90;;;;;;5014070;28;20097;-71
2023/12/30 07:30:15;;;;;;;13.65;8.18;;;6.90;99.90;;;;;;5020815;28;20077;-70
2023/12/30 07:32:41;;;;;;;21.52;15.00;;;6.90;99.90;;;;;;5035115;28;20021;-71
2023/12/30 07:35:07;;;;;;;10.43;5.43;;;6.80;99.90;;;;;;5041775;28;20048;-71
2023/12/30 07:37:37;;;;;;;20.02;6.20;;;6.90;99.90;;;;;;5025920;28;20024;-73
2023/12/30 07:40:06;;;;;;;11.25;4.80;;;6.80;99.90;;;;;;5042376;28;20025;-74
2023/12/30 07:42:32;;;;;;;22.88;13.15;;;6.80;99.90;;;;;;5042215;28;20104;-71
2023/12/30 07:44:59;;;;;;;21.05;10.43;;;6.80;99.90;;;;;;5025748;28;20175;-72
2023/12/30 07:47:27;;;;;;;17.70;7.28;;;6.70;99.90;;;;;;5044432;28;20040;-72
2023/12/30 07:49:54;;;;;;;17.70;13.85;;;6.70;99.90;;;;;;5026426;28;20021;-72
2023/12/30 07:52:20;;;;;;;29.25;16.10;;;6.70;99.90;;;;;;5043244;28;20017;-73
2023/12/30 07:54:46;;;;;;;19.00;11.10;;;6.70;99.90;;;;;;5043381;28;20032;-72
2023/12/30 07:57:12;;;;;;;41.65;26.10;;;6.60;99.90;;;;;;5026103;28;20030;-72
2023/12/30 07:59:37;;;;;;;27.67;16.73;;;6.70;99.90;;;;;;5033797;28;20037;-74
2023/12/30 08:02:04;;;;;;;31.13;18.50;;;6.70;99.90;;;;;;5044119;28;20029;-73
2023/12/30 08:04:30;;;;;;;14.10;5.65;;;6.70;99.90;;;;;;5042379;28;20048;-71
2023/12/30 08:06:55;;;;;;;13.75;3.65;;;6.80;99.90;;;;;;5042831;28;20037;-73
2023/12/30 08:09:22;;;;;;;13.68;5.95;;;6.90;99.90;;;;;;5010080;28;20033;-73
2023/12/30 08:11:49;;;;;;;8.40;5.05;;;7.00;99.90;;;;;;5026549;28;20056;-73
2023/12/30 08:14:15;;;;;;;18.50;10.68;;;7.10;99.90;;;;;;5043470;28;20086;-73
2023/12/30 08:16:41;;;;;;;15.85;8.93;;;7.10;99.90;;;;;;5042080;28;20028;-72
2023/12/30 08:19:07;;;;;;;41.75;23.30;;;7.20;99.90;;;;;;5007334;28;20029;-72
2023/12/30 08:21:33;;;;;;;32.53;11.93;;;7.30;99.90;;;;;;5018939;28;20112;-73
2023/12/30 08:24:00;;;;;;;16.08;9.30;;;7.30;99.90;;;;;;5042643;28;20318;-73
2023/12/30 08:26:26;;;;;;;15.63;6.95;;;7.30;99.90;;;;;;5041314;28;20029;-73
2023/12/30 08:28:54;;;;;;;14.70;11.38;;;7.40;99.90;;;;;;5026466;28;20045;-72
2023/12/30 08:31:21;;;;;;;11.02;6.95;;;7.40;99.90;;;;;;5040355;28;20249;-73
2023/12/30 08:33:47;;;;;;;7.30;3.83;;;7.50;99.90;;;;;;5042744;28;20017;-72
2023/12/30 08:36:13;;;;;;;16.92;6.30;;;7.50;99.90;;;;;;5042192;28;20025;-72
2023/12/30 08:38:39;;;;;;;10.90;5.10;;;7.50;99.90;;;;;;5009617;28;20089;-72
2023/12/30 08:41:14;;;;;;;28.40;4.57;;;7.50;99.90;;;;;;5020611;28;20045;-75
2023/12/30 08:43:44;;;;;;;18.38;4.85;;;7.50;99.90;;;;;;5033736;28;20079;-73
2023/12/30 08:46:10;;;;;;;10.90;5.22;;;7.50;99.90;;;;;;5038846;28;20025;-72
2023/12/30 08:48:37;;;;;;;17.67;5.25;;;7.60;99.90;;;;;;4997916;28;20100;-73
2023/12/30 08:51:03;;;;;;;9.27;6.85;;;7.70;99.90;;;;;;5043124;28;20021;-73
2023/12/30 08:53:29;;;;;;;12.73;6.95;;;7.70;99.90;;;;;;5009012;28;20283;-77
2023/12/30 08:55:55;;;;;;;6.22;3.92;;;7.80;99.90;;;;;;5021973;28;20040;-73
2023/12/30 08:58:24;;;;;;;14.95;5.25;;;7.80;99.90;;;;;;5016991;28;20298;-74
2023/12/30 09:00:49;;;;;;;9.88;6.53;;;7.80;99.90;;;;;;5040560;28;20271;-71
2023/12/30 09:03:15;;;;;;;7.05;6.10;;;7.90;99.90;;;;;;5008561;28;20029;-72
2023/12/30 09:05:41;;;;;;;9.52;5.22;;;7.90;99.90;;;;;;5005432;28;20029;-71
2023/12/30 09:08:07;;;;;;;9.95;5.43;;;7.90;99.90;;;;;;5015289;28;20037;-73
2023/12/30 09:10:33;;;;;;;5.32;4.45;;;7.90;99.90;;;;;;5014467;28;20033;-69
2023/12/30 09:12:59;;;;;;;11.48;4.13;;;8.00;99.90;;;;;;5005676;28;20052;-72
2023/12/30 09:15:25;;;;;;;13.00;3.90;;;8.10;99.90;;;;;;5006024;28;20049;-70
2023/12/30 09:17:51;;;;;;;12.75;4.43;;;8.20;99.90;;;;;;5013522;28;20034;-71
2023/12/30 09:20:17;;;;;;;17.80;9.13;;;8.50;99.90;;;;;;5022502;28;20025;-70
2023/12/30 09:22:43;;;;;;;10.13;6.15;;;8.50;99.90;;;;;;5041381;28;20090;-70
2023/12/30 09:25:09;;;;;;;23.45;9.00;;;8.60;99.90;;;;;;5039529;28;20025;-70
2023/12/30 09:27:35;;;;;;;12.35;4.95;;;8.70;99.90;;;;;;5028513;28;20113;-70
2023/12/30 09:30:01;;;;;;;37.95;11.85;;;8.80;99.90;;;;;;5014967;28;20281;-71
2023/12/30 09:32:27;;;;;;;18.83;10.30;;;8.80;99.90;;;;;;5042422;28;20026;-71
2023/12/30 09:34:53;;;;;;;9.15;5.93;;;8.80;99.90;;;;;;5040552;28;20265;-70
2023/12/30 09:37:19;;;;;;;17.63;6.05;;;8.90;99.90;;;;;;5042230;28;20049;-71
2023/12/30 09:39:47;;;;;;;14.93;6.70;;;8.80;99.90;;;;;;5021490;28;20072;-70
2023/12/30 09:42:12;;;;;;;7.72;4.10;;;8.80;99.90;;;;;;5008160;28;20053;-71
2023/12/30 09:44:40;;;;;;;12.45;6.78;;;8.70;99.90;;;;;;5006829;28;20187;-71
2023/12/30 09:47:11;;;;;;;9.38;5.32;;;8.70;99.90;;;;;;5024871;28;20079;-70
2023/12/30 09:49:37;;;;;;;18.02;6.90;;;8.70;99.90;;;;;;5009057;28;20226;-69
2023/12/30 09:52:07;;;;;;;12.90;4.75;;;8.70;99.90;;;;;;5025194;28;20060;-70
2023/12/30 09:54:34;;;;;;;24.55;7.18;;;8.70;99.90;;;;;;5026126;28;20038;-75
2023/12/30 09:57:02;;;;;;;15.80;5.95;;;8.70;99.90;;;;;;5043503;28;20025;-70
2023/12/30 09:59:30;;;;;;;13.02;5.57;;;8.70;99.90;;;;;;5045875;28;20098;-71
2023/12/30 10:01:56;;;;;;;23.25;5.57;;;8.60;99.90;;;;;;5046308;28;20079;-71
2023/12/30 10:04:22;;;;;;;13.45;5.43;;;8.60;99.90;;;;;;5028482;28;20037;-70
2023/12/30 10:06:53;;;;;;;6.40;3.78;;;8.60;99.90;;;;;;5044663;28;20230;-70
2023/12/30 10:09:22;;;;;;;13.15;3.88;;;8.60;99.90;;;;;;5027825;28;20085;-70
2023/12/30 10:11:48;;;;;;;7.97;4.80;;;8.60;99.90;;;;;;5044835;28;20327;-71
2023/12/30 10:14:15;;;;;;;13.23;5.03;;;8.70;99.90;;;;;;5044949;28;20041;-71
2023/12/30 10:16:40;;;;;;;14.50;3.70;;;8.70;99.90;;;;;;5002208;28;20034;-70
2023/12/30 10:19:10;;;;;;;15.80;6.13;;;8.70;99.90;;;;;;5045440;28;20320;-70
2023/12/30 10:21:37;;;;;;;9.73;6.97;;;8.70;99.90;;;;;;5028087;28;20067;-70
2023/12/30 10:24:04;;;;;;;13.93;6.25;;;8.80;99.90;;;;;;5044692;28;20026;-70
2023/12/30 10:26:39;;;;;;;24.65;7.93;;;8.90;99.90;;;;;;5044038;28;20117;-70
2023/12/30 10:29:07;;;;;;;14.63;5.50;;;8.80;99.90;;;;;;5044680;28;20025;-70
2023/12/30 10:31:33;;;;;;;11.18;5.07;;;8.90;99.90;;;;;;4995770;28;20309;-70
2023/12/30 10:34:00;;;;;;;14.18;5.00;;;8.90;99.90;;;;;;5044474;28;20052;-70
2023/12/30 10:36:29;;;;;;;13.43;4.57;;;8.90;99.90;;;;;;5042856;28;20024;-70
2023/12/30 10:38:55;;;;;;;25.93;5.07;;;9.00;99.90;;;;;;5045545;28;20021;-70
2023/12/30 10:41:21;;;;;;;11.40;4.95;;;9.10;99.90;;;;;;5027345;28;20044;-70
2023/12/30 10:43:47;;;;;;;11.15;5.95;;;9.20;99.90;;;;;;5027236;28;20306;-70
2023/12/30 10:46:13;;;;;;;14.60;5.45;;;9.30;99.90;;;;;;5009979;28;20419;-71
2023/12/30 10:49:03;;;;;;;6.75;3.97;;;9.50;99.90;;;;;;5045069;28;20334;-71
2023/12/30 10:51:33;;;;;;;14.73;4.00;;;9.80;99.90;;;;;;5045268;28;20040;-71
2023/12/30 10:54:10;;;;;;;10.45;4.13;;;10.10;99.90;;;;;;5010396;28;20036;-70
2023/12/30 10:57:06;;;;;;;14.38;5.10;;;10.30;99.90;;;;;;5043525;28;20056;-70
2023/12/30 10:59:32;;;;;;;4.50;3.03;;;10.30;99.90;;;;;;5045041;28;20029;-70
2023/12/30 11:01:58;;;;;;;7.30;3.17;;;10.10;99.90;;;;;;5044327;28;20021;-73
2023/12/30 11:04:25;;;;;;;8.90;4.45;;;10.20;99.90;;;;;;5039032;28;20033;-69
2023/12/30 11:06:56;;;;;;;16.67;6.80;;;10.10;99.90;;;;;;5042598;28;20207;-69
2023/12/30 11:09:27;;;;;;;20.08;5.20;;;10.00;99.90;;;;;;5042654;28;20287;-71
2023/12/30 11:11:54;;;;;;;11.57;5.22;;;10.00;99.90;;;;;;5019064;28;20033;-70
2023/12/30 11:14:20;;;;;;;9.95;4.53;;;9.80;99.90;;;;;;5043471;28;20338;-71
2023/12/30 11:16:47;;;;;;;10.68;5.25;;;9.70;99.90;;;;;;5040159;28;20017;-71
2023/12/30 11:19:29;;;;;;;13.27;6.00;;;9.80;99.90;;;;;;5041348;28;20314;-71
2023/12/30 11:21:59;;;;;;;14.23;4.63;;;9.70;99.90;;;;;;5024144;28;20055;-71
2023/12/30 11:24:26;;;;;;;28.07;6.60;;;9.80;99.90;;;;;;5043076;28;20093;-71
2023/12/30 11:26:53;;;;;;;8.25;3.42;;;9.70;99.90;;;;;;5039795;28;20441;-71
2023/12/30 11:29:25;;;;;;;6.50;2.80;;;9.60;99.90;;;;;;5025050;28;20029;-72
2023/12/30 11:31:52;;;;;;;11.95;9.38;;;9.50;99.90;;;;;;5032210;28;20017;-72
2023/12/30 11:34:19;;;;;;;15.52;4.95;;;9.40;99.90;;;;;;5008824;28;20049;-72
2023/12/30 11:36:46;;;;;;;10.07;3.70;;;9.50;99.90;;;;;;5023619;28;20072;-71
2023/12/30 11:39:22;;;;;;;14.75;4.50;;;9.50;99.90;;;;;;5018058;28;20014;-71
2023/12/30 11:41:48;;;;;;;14.40;2.83;;;9.60;99.90;;;;;;5042738;28;20083;-72
2023/12/30 11:44:14;;;;;;;4.40;2.65;;;9.60;99.90;;;;;;5027085;28;20033;-70
2023/12/30 11:46:41;;;;;;;14.52;4.47;;;9.70;99.90;;;;;;5023454;28;20017;-71
2023/12/30 11:49:07;;;;;;;9.63;3.85;;;9.70;99.90;;;;;;5025880;28;20033;-71
2023/12/30 11:51:33;;;;;;;20.35;5.32;;;9.70;99.90;;;;;;5043518;28;20022;-71
2023/12/30 11:54:05;;;;;;;12.57;5.13;;;9.70;99.90;;;;;;5025217;28;20064;-71
2023/12/30 11:56:32;;;;;;;11.25;3.60;;;9.80;99.90;;;;;;5025222;28;20357;-71
2023/12/30 11:58:58;;;;;;;12.45;3.45;;;9.90;99.90;;;;;;5010664;28;20226;-71
2023/12/30 12:01:25;;;;;;;10.20;2.40;;;10.30;99.90;;;;;;5021652;28;20029;-72
2023/12/30 12:03:52;;;;;;;8.75;4.13;;;10.40;99.90;;;;;;5021413;28;20029;-71
2023/12/30 12:06:19;;;;;;;2.50;1.85;;;10.40;99.90;;;;;;5023398;28;20017;-74
2023/12/30 12:08:44;;;;;;;3.17;2.92;;;10.40;99.90;;;;;;5021509;28;20100;-71
2023/12/30 12:11:10;;;;;;;9.52;3.63;;;10.50;99.90;;;;;;5025568;28;20072;-72
2023/12/30 12:13:36;;;;;;;8.68;3.90;;;10.40;99.90;;;;;;5026426;28;20013;-72
2023/12/30 12:16:04;;;;;;;13.38;3.92;;;10.50;99.90;;;;;;5039296;28;20034;-71
2023/12/30 12:18:32;;;;;;;5.85;2.13;;;10.40;99.90;;;;;;5015578;28;20030;-72
2023/12/30 12:20:59;;;;;;;7.45;3.45;;;10.40;99.90;;;;;;5025503;28;20033;-72
2023/12/30 12:23:25;;;;;;;11.30;3.88;;;10.50;99.90;;;;;;5042458;28;20018;-72
2023/12/30 12:25:51;;;;;;;9.98;3.50;;;10.60;99.90;;;;;;5040922;28;20314;-71
2023/12/30 12:28:23;;;;;;;5.50;1.50;;;10.50;99.90;;;;;;5042964;28;20036;-71
2023/12/30 12:30:49;;;;;;;4.38;2.75;;;10.50;99.90;;;;;;5042007;28;20021;-71
2023/12/30 12:33:19;;;;;;;11.95;3.90;;;10.40;99.90;;;;;;5025240;28;20021;-71
2023/12/30 12:35:45;;;;;;;6.80;2.00;;;10.40;99.90;;;;;;5041683;28;20051;-72
2023/12/30 12:38:11;;;;;;;6.80;3.70;;;10.50;99.90;;;;;;5024897;28;20026;-72
2023/12/30 12:40:38;;;;;;;9.35;5.20;;;10.60;99.90;;;;;;5025252;28;20306;-71
2023/12/30 12:43:04;;;;;;;5.68;2.95;;;10.60;99.90;;;;;;5042336;28;20025;-71
2023/12/30 12:45:29;;;;;;;2.75;1.90;;;10.70;99.90;;;;;;5024060;28;20270;-71
2023/12/30 12:47:55;;;;;;;13.45;4.10;;;10.80;99.90;;;;;;5029634;28;20108;-71
2023/12/30 12:50:21;;;;;;;5.20;2.88;;;11.00;99.90;;;;;;5042035;28;20032;-72